Hit Tracker is now ESPN Home Run Tracker! Hit Tracker founder Greg Rybarczyk is now collaborating with the ESPN Stats & Information Group to continue tracking all MLB home runs, and helping baseball fans know "How Far It Really Went!™" Please credit any information on this site to ESPN Stats & Information Group. For more information and analysis on home runs, please contact founder Greg Rybarczyk. E-Mail ESPN Home Run Tracker
Main Page | Ballparks | Park Overlays | Glossary | Highlight Homers | Feedback | Bio | 3 Types of HR's | AAA Home Run Derby Last Updated: August 29, 2016, 10:35 pm PST
If you want to know "How Far It Really Went!", then you've come to the right place! Welcome to the ESPN Home Run Tracker, where you can find accurate, transparently verifiable distances for every home run hit in MLB games. Please also check out the ESPN MLB Scoreboard throughout the 2016 season! Contact us at grybar@hittrackeronline.com.
Season:
Ballpark detail for Miller Park
Ballpark # of Home Runs HR per game Avg.
True
Distance
Avg.
Speed
Off
Bat
Avg.
Std.
Dist.
Miller Park 174 2.49 401.9 103.8 400.2

Scatter Plot of Home Runs Miller Park
 Overlay Ballpark:
Without range rings   With range rings

2016 Season Home Runs for Miller Park
Click headers to sort
Date ^ Video Path Hitter Hitter
Team
Pitcher Pitcher
Team
INN Ballpark Type/
Luck
True
Dist.
Speed
Off
Bat
Elev.
Angle
Horiz.
Angle
Apex Impact Due To: Std.
Dist.
#
Parks
Wind Temp. Alt.
04/04/16 Video View Gennett, Scooter MIL Bumgarner, Madison SF 2 Miller Park ND 406 106.7 28.8 63.4 90 0 -1 1 406 30
04/04/16 Video View Villar, Jonathan MIL Bumgarner, Madison SF 3 Miller Park JE 379 101.3 27.2 112.4 76 0 0 1 379 29
04/04/16 Video View Duffy, Matt SF Torres, Carlos MIL 5 Miller Park PL 380 101.7 35.6 110.6 128 0 -1 3 379 30
04/04/16 Video View Span, Denard SF Pena, Ariel MIL 8 Miller Park PL 379 100.1 29.7 67.0 87 0 -1 1 379 29
04/04/16 Video View Panik, Joe SF Pena, Ariel MIL 8 Miller Park ND 402 104.4 32.6 69.0 116 0 -1 2 401 30
04/04/16 Video View Posey, Buster SF Pena, Ariel MIL 8 Miller Park PL 424 105.9 23.4 93.4 79 0 0 1 424 26
04/05/16 Video View Crawford, Brandon SF Nelson, Jimmy MIL 3 Miller Park PL 376 102.1 36.0 65.9 128 0 -2 3 375 29
04/06/16 Video View Duffy, Matt SF Jungmann, Taylor MIL 2 Miller Park PL 429 106.3 24.6 95.5 85 0 0 0 429 29
04/06/16 Video View Carter, Chris MIL Samardzija, Jeff SF 3 Miller Park JE 389 100.2 26.1 78.7 78 0 0 1 389 16
04/08/16 Video View Gennett, Scooter MIL Feldman, Scott HOU 1 Miller Park ND 426 105.7 27.8 78.1 97 0 1 1 423 29
04/08/16 Video View Carter, Chris MIL Feldman, Scott HOU 1 Miller Park JE 420 105.4 23.0 86.8 75 0 0 0 419 25
04/08/16 Video View Braun, Ryan MIL Fields, Josh HOU 8 Miller Park PL 422 103.4 27.6 85.2 98 0 1 1 421 25
04/08/16 Video View White, Tyler HOU Freeman, Sam MIL 9 Miller Park JE 388 101.2 25.9 75.8 75 0 0 1 387 22
04/09/16 Video View Rasmus, Colby HOU Peralta, Wily MIL 3 Miller Park JE 394 99.7 26.4 97.2 82 0 -1 1 393 6
04/09/16 Video View Rasmus, Colby HOU Peralta, Wily MIL 5 Miller Park ND 431 108.3 28.7 73.3 104 0 -1 2 430 30
04/09/16 Video View White, Tyler HOU Peralta, Wily MIL 5 Miller Park JE 423 106.1 22.7 92.5 75 0 0 0 423 26
04/09/16 Video View Gennett, Scooter MIL Fister, Doug HOU 5 Miller Park PL 372 100.7 26.9 66.4 72 0 -1 1 372 24
04/09/16 Video View Nieuwenhuis, Kirk MIL Neshek, Pat HOU 6 Miller Park JE 366 107.8 20.8 67.2 49 0 0 0 366 9
04/10/16 Video View Altuve, Jose HOU Nelson, Jimmy MIL 1 Miller Park ND 443 111.0 26.8 106.3 96 0 -1 1 442 30
04/10/16 Video View Tucker, Preston HOU Nelson, Jimmy MIL 5 Miller Park JE 389 104.4 21.7 99.7 60 0 0 0 388 4
04/20/16 Video View Arcia, Oswaldo MIN Nelson, Jimmy MIL 6 Miller Park ND 405 109.0 35.3 63.5 138 0 -2 4 403 30
04/20/16 Video View Rosario, Eddie MIN Nelson, Jimmy MIL 6 Miller Park JE 386 99.7 26.7 102.3 79 0 0 1 386 15
04/20/16 Video View Hill, Aaron MIL Pressly, Ryan MIN 6 Miller Park PL 401 103.5 29.6 110.0 96 0 -1 1 401 30
04/20/16 Video View Carter, Chris MIL Pressly, Ryan MIN 7 Miller Park JE 412 115.9 16.7 84.8 47 0 0 0 412 12
04/20/16 Video View Santana, Domingo MIL O'Rourke, Ryan MIN 8 Miller Park JE 378 100.5 26.3 71.9 73 0 0 1 378 21
04/21/16 Video View Sano, Miguel MIN Torres, Carlos MIL 7 Miller Park PL 416 102.6 29.2 82.6 104 0 0 1 415 27
04/21/16 Video View Dozier, Brian MIN Freeman, Sam MIL 8 Miller Park PL 384 101.3 33.6 113.2 112 0 0 2 382 30
04/22/16 Video View Franco, Maikel PHI Davies, Zach MIL 5 Miller Park PL 377 102.5 36.9 109.9 139 0 -1 3 375 30
04/22/16 Video View Franco, Maikel PHI Capuano, Chris MIL 7 Miller Park PL 417 104.1 27.5 100.5 94 0 -1 1 416 30
04/23/16 Video View Braun, Ryan MIL Oberholtzer, Brett PHI 3 Miller Park PL 393 109.7 22.6 113.6 60 0 0 1 392 30
04/23/16 Video View Franco, Maikel PHI Anderson, Chase MIL 4 Miller Park PL 379 101.2 28.8 116.1 81 0 0 1 378 30
04/23/16 Video View Carter, Chris MIL Hinojosa, Dalier PHI 8 Miller Park ND 421 105.2 28.6 102.7 101 0 0 2 420 30
04/23/16 Video View Herrera, Odubel PHI Jeffress, Jeremy MIL 9 Miller Park PL 400 99.7 28.4 96.1 94 0 -1 1 399 11
04/24/16 Video View Braun, Ryan MIL Eickhoff, Jerad PHI 4 Miller Park PL 362 97.0 34.0 66.0 104 0 -1 2 361 25
04/24/16 Video View Gennett, Scooter MIL Eickhoff, Jerad PHI 6 Miller Park JE 383 99.7 27.1 105.2 79 0 -1 1 383 22
04/24/16 Video View Presley, Alex MIL Neris, Hector PHI 6 Miller Park PL 388 104.9 23.7 72.1 65 0 0 0 387 25
04/29/16 Video View Bour, Justin MIA Davies, Zach MIL 1 Miller Park PL 404 102.1 28.6 77.2 95 0 0 1 403 29
04/29/16 Video View Bour, Justin MIA Boyer, Blaine MIL 6 Miller Park PL 364 97.8 36.2 72.2 124 0 -1 2 363 13
04/30/16 Video View Dietrich, Derek MIA Anderson, Chase MIL 1 Miller Park PL 403 104.0 27.5 71.6 86 0 -1 1 402 30
04/30/16 Video View Hechavarria, Adeiny MIA Anderson, Chase MIL 2 Miller Park JE 390 103.4 22.2 98.8 62 0 0 0 390 4
04/30/16 Video View Stanton, Giancarlo MIA Anderson, Chase MIL 4 Miller Park ND 460 112.2 23.5 95.8 89 0 -1 1 459 30
04/30/16 Video View Ozuna, Marcell MIA Capuano, Chris MIL 6 Miller Park PL 415 106.3 23.8 79.5 75 0 0 1 414 28
04/30/16 Video View Perez, Hernan MIL Breslow, Craig MIA 7 Miller Park JE 413 101.3 29.4 91.1 106 0 -1 2 412 19
05/01/16 Video View Santana, Domingo MIL Koehler, Tom MIA 1 Miller Park JE 365 99.7 26.1 67.9 67 0 0 1 365 12
05/01/16 Video View Carter, Chris MIL Koehler, Tom MIA 3 Miller Park PL 428 106.0 26.0 81.8 91 0 0 1 428 30
05/01/16 Video View Carter, Chris MIL Ege, Cody MIA 4 Miller Park JE 375 110.4 22.2 127.0 53 0 0 0 374 30
05/01/16 Video View Ozuna, Marcell MIA Peralta, Wily MIL 5 Miller Park PL 393 101.1 30.5 108.0 99 0 0 2 391 30
05/02/16 Video View Trout, Mike LAA Nelson, Jimmy MIL 6 Miller Park JE 410 100.8 28.5 89.0 99 0 -1 1 409 15
05/03/16 Video View Carter, Chris MIL Tropeano, Nick LAA 3 Miller Park PL 433 109.5 20.9 91.7 69 0 0 0 433 26
05/03/16 Video View Carter, Chris MIL Tropeano, Nick LAA 5 Miller Park PL 417 106.3 34.3 101.3 143 0 0 3 414 30
05/03/16 Video View Lucroy, Jonathan MIL Tropeano, Nick LAA 5 Miller Park PL 397 105.2 25.4 109.8 73 0 0 1 396 30
05/04/16 Video View Perez, Hernan MIL Santiago, Hector LAA 2 Miller Park JE 383 99.5 27.8 74.2 82 0 0 1 382 22
05/04/16 Video View Trout, Mike LAA Thornburg, Tyler MIL 8 Miller Park JE 354 96.8 28.3 64.6 72 0 0 1 353 11
05/12/16 Video View Upton Jr., Melvin SD Thornburg, Tyler MIL 9 Miller Park PL 404 102.2 24.7 96.5 77 1 0 1 403 12
05/14/16 Video View Myers, Wil SD Peralta, Wily MIL 5 Miller Park PL 373 99.2 27.3 70.3 75 0 0 1 372 20
05/14/16 Video View Kemp, Matt SD Peralta, Wily MIL 5 Miller Park PL 412 103.5 25.7 81.7 84 0 0 0 412 28
05/14/16 Video View Norris, Derek SD Capuano, Chris MIL 12 Miller Park PL 403 104.3 31.2 112.0 105 0 -1 2 402 30
05/14/16 Video View Upton Jr., Melvin SD Capuano, Chris MIL 12 Miller Park PL 440 111.7 19.9 90.8 67 0 0 0 440 28
05/14/16 Video View Lucroy, Jonathan MIL Villanueva, Carlos SD 12 Miller Park PL 388 98.8 32.9 100.7 115 0 -1 2 387 13
05/15/16 Video View Wallace, Brett SD Davies, Zach MIL 7 Miller Park JE 394 105.0 21.0 97.1 59 0 0 0 394 2
05/15/16 Video View Lucroy, Jonathan MIL Vargas, Cesar SD 5 Miller Park PL 435 105.3 27.6 91.4 104 0 0 2 434 29
05/15/16 Video View Carter, Chris MIL Vargas, Cesar SD 3 Miller Park PL 443 107.6 25.6 85.8 95 0 0 1 442 30
05/17/16 Video View Lucroy, Jonathan MIL Hendricks, Kyle CHC 4 Miller Park PL 418 105.2 28.4 104.5 98 0 -1 1 417 30
05/17/16 Video View Heyward, Jason CHC Anderson, Chase MIL 9 Miller Park JE 390 98.6 28.9 80.5 92 0 -1 1 389 10
05/17/16 Video View Bryant, Kris CHC Anderson, Chase MIL 9 Miller Park PL 374 99.9 34.5 114.2 113 0 -1 2 373 30
05/19/16 Video View Fowler, Dexter CHC Guerra, Junior MIL 1 Miller Park PL 363 100.3 34.7 72.9 128 -18 -2 2 380 30
05/19/16 Video View Carter, Chris MIL Hammel, Jason CHC 4 Miller Park PL 434 110.7 19.3 88.7 63 7 0 0 427 27
05/19/16 Video View Nieuwenhuis, Kirk MIL Hammel, Jason CHC 6 Miller Park PL 412 109.9 22.1 75.8 66 0 0 1 412 29
05/27/16 Video View Duvall, Adam CIN Davies, Zach MIL 1 Miller Park PL 384 101.7 30.1 117.6 87 1 0 1 381 30
05/27/16 Video View Lucroy, Jonathan MIL Lamb, John CIN 3 Miller Park PL 419 104.5 29.1 102.8 103 1 0 2 417 30
05/27/16 Video View Hill, Aaron MIL Lamb, John CIN 4 Miller Park PL 370 102.1 27.6 123.0 71 1 0 1 369 30
05/27/16 Video View Hill, Aaron MIL Diaz, Dayan CIN 5 Miller Park PL 391 100.4 31.0 107.5 100 1 0 2 388 30
05/27/16 Video View Votto, Joey CIN Davies, Zach MIL 6 Miller Park JE 384 97.5 32.1 100.5 107 1 0 2 382 5
05/28/16 Video View Lucroy, Jonathan MIL Morris, A.J. CIN 5 Miller Park PL 387 99.0 34.0 99.7 122 -3 2 2 385 7
05/28/16 Video View Duvall, Adam CIN Blazek, Michael MIL 7 Miller Park PL 400 102.8 31.0 106.2 109 -7 2 2 403 30
05/29/16 Video View Bruce, Jay CIN Nelson, Jimmy MIL 2 Miller Park ND 404 107.9 26.8 61.1 78 1 1 1 402 30
05/30/16 Video View Holliday, Matt STL Marinez, Jhan MIL 7 Miller Park ND 456 113.5 25.1 104.6 91 1 1 2 453 30
05/31/16 Video View Lucroy, Jonathan MIL Leake, Mike STL 2 Miller Park JE 392 105.5 20.8 98.3 58 0 0 0 392 3
05/31/16 Video View Gyorko, Jedd STL Goforth, David MIL 8 Miller Park PL 392 99.6 29.4 103.6 93 0 0 1 390 26
06/01/16 Video View Maldonado, Martin MIL Bowman, Matt STL 6 Miller Park PL 412 102.3 26.7 96.1 90 -2 1 1 411 24
06/01/16 Video View Moss, Brandon STL Jeffress, Jeremy MIL 9 Miller Park PL 414 109.4 23.0 73.9 68 0 1 1 412 29
06/07/16 Video View Carter, Chris MIL Manaea, Sean OAK 2 Miller Park PL 432 109.4 20.8 88.2 69 0 0 0 432 27
06/07/16 Video View Carter, Chris MIL Manaea, Sean OAK 6 Miller Park PL 420 102.7 30.1 87.2 113 0 0 1 418 27
06/07/16 Video View Butler, Billy OAK Davies, Zach MIL 7 Miller Park PL 404 100.5 30.5 97.7 107 0 0 2 402 21
06/09/16 Video View Granderson, Curtis NYM Nelson, Jimmy MIL 1 Miller Park JE 384 105.1 23.5 70.5 62 0 0 0 383 24
06/10/16 Video View Cespedes, Yoenis NYM Guerra, Junior MIL 6 Miller Park ND 433 108.9 22.5 96.3 74 -1 1 1 432 29
06/11/16 Video View Cabrera, Asdrubal NYM Peralta, Wily MIL 2 Miller Park JE 380 99.4 26.1 104.6 72 1 1 1 378 5
06/11/16 Video View Carter, Chris MIL Verrett, Logan NYM 2 Miller Park PL 386 104.0 38.4 105.6 155 4 8 4 372 18
06/11/16 Video View Braun, Ryan MIL Verrett, Logan NYM 3 Miller Park PL 423 104.9 23.8 91.7 78 0 1 0 422 25
06/11/16 Video View Peralta, Wily MIL Verrett, Logan NYM 4 Miller Park PL 416 105.2 26.4 104.1 84 1 2 1 413 30
06/11/16 Video View Granderson, Curtis NYM Peralta, Wily MIL 5 Miller Park PL 390 109.8 22.2 65.7 57 0 1 1 388 29
06/11/16 Video View Gennett, Scooter MIL Bastardo, Antonio NYM 7 Miller Park JE 365 102.8 23.7 66.4 57 0 1 1 364 10
06/11/16 Video View Braun, Ryan MIL Bastardo, Antonio NYM 7 Miller Park PL/L 357 95.8 37.4 62.5 113 9 5 2 342 14
06/24/16 Video View Broxton, Keon MIL Scherzer, Max WSH 5 Miller Park JE 385 97.4 30.2 100.1 96 0 0 1 383 4
06/24/16 Video View Nieuwenhuis, Kirk MIL Scherzer, Max WSH 6 Miller Park PL 423 105.9 25.9 79.4 88 0 0 1 422 29
06/25/16 Video View Carter, Chris MIL Gonzalez, Gio WSH 1 Miller Park PL 399 105.6 28.0 117.4 82 -1 2 2 397 30
06/26/16 Video View Lobaton, Jose WSH Barnes, Jacob MIL 7 Miller Park JE/L 382 95.0 34.8 105.8 105 19 3 2 358 3
06/26/16 Video View Robinson, Clint WSH Blazek, Michael MIL 8 Miller Park PL 381 96.9 35.4 70.4 113 16 3 2 361 7
06/26/16 Video View Maldonado, Martin MIL Kelley, Shawn WSH 9 Miller Park PL 396 97.7 33.9 105.1 108 18 3 2 374 13
06/29/16 Video View Nieuwenhuis, Kirk MIL Stewart, Brock LAD 2 Miller Park JE 386 102.8 25.3 108.3 71 0 0 0 386 29
06/29/16 Video View Braun, Ryan MIL Hatcher, Chris LAD 7 Miller Park JE 373 103.1 23.9 69.3 61 0 0 0 373 18
06/30/16 Video View Thompson, Trayce LAD Davies, Zach MIL 2 Miller Park PL 417 104.3 27.5 103.2 91 2 1 1 413 30
06/30/16 Video View Grandal, Yasmani LAD Davies, Zach MIL 4 Miller Park PL 426 105.0 26.3 96.9 91 -2 2 1 425 30
06/30/16 Video View Seager, Corey LAD Davies, Zach MIL 5 Miller Park PL 418 102.3 31.1 86.4 117 0 1 2 415 25
07/08/16 Video View Carter, Chris MIL Wacha, Michael STL 2 Miller Park PL 426 107.7 21.6 92.5 70 0 0 0 426 26
07/08/16 Video View Lucroy, Jonathan MIL Wacha, Michael STL 6 Miller Park JE 401 99.7 28.4 95.2 94 0 0 1 400 9
07/08/16 Video View Carter, Chris MIL Wacha, Michael STL 6 Miller Park PL 417 104.1 31.0 76.6 113 2 1 2 413 30
07/08/16 Video View Molina, Yadier STL Smith, Will MIL 8 Miller Park JE 381 99.0 27.5 105.3 79 0 0 1 379 17
07/09/16 Video View Peralta, Jhonny STL Anderson, Chase MIL 2 Miller Park JE 393 101.0 24.8 98.8 73 0 0 1 392 5
07/09/16 Video View Pham, Tommy STL Blazek, Michael MIL 9 Miller Park JE 411 101.0 27.1 89.8 91 0 1 1 408 11
07/09/16 Video View Diaz, Aledmys STL Blazek, Michael MIL 9 Miller Park JE 375 99.8 29.5 115.7 83 0 1 1 373 29
07/10/16 Video View Adams, Matt STL Guerra, Junior MIL 2 Miller Park ND 434 112.8 30.3 56.9 103 1 2 2 430 30
07/10/16 Video View Grichuk, Randal STL Guerra, Junior MIL 6 Miller Park PL 413 104.3 28.0 106.0 90 1 2 1 409 30
07/22/16 Video View Fowler, Dexter CHC Nelson, Jimmy MIL 1 Miller Park JE 419 107.9 20.2 91.1 63 2 0 0 418 19
07/22/16 Video View Braun, Ryan MIL Hammel, Jason CHC 4 Miller Park PL 426 106.7 22.2 87.8 74 1 0 0 424 27
07/23/16 Video View Lucroy, Jonathan MIL Lackey, John CHC 1 Miller Park PL 414 108.5 22.7 102.7 68 0 1 0 414 30
07/23/16 Video View Nieuwenhuis, Kirk MIL Lackey, John CHC 4 Miller Park JE 421 104.2 24.4 90.4 81 0 0 0 421 27
07/23/16 Video View Nieuwenhuis, Kirk MIL Montgomery, Mike CHC 8 Miller Park PL 362 97.6 34.0 120.5 98 0 2 2 358 29
07/24/16 Video View Nieuwenhuis, Kirk MIL Rondon, Hector CHC 9 Miller Park PL 365 98.3 29.1 58.7 73 6 1 1 357 22
07/25/16 Video View Gennett, Scooter MIL Shipley, Braden ARI 1 Miller Park PL 436 105.4 27.0 88.0 99 0 2 1 433 29
07/25/16 Video View Villar, Jonathan MIL Shipley, Braden ARI 3 Miller Park PL 422 109.9 20.1 85.0 62 0 0 1 421 23
07/25/16 Video View Maldonado, Martin MIL Shipley, Braden ARI 6 Miller Park PL 393 107.3 25.6 119.8 69 0 1 1 392 30
07/25/16 Video View Wilkins, Andy MIL Leone, Dominic ARI 6 Miller Park JE 418 102.9 26.1 93.1 88 0 0 1 416 20
07/27/16 Video View Tomas, Yasmany ARI Nelson, Jimmy MIL 1 Miller Park PL 402 101.3 25.5 96.6 79 0 0 1 401 11
07/27/16 Video View Tomas, Yasmany ARI Nelson, Jimmy MIL 5 Miller Park PL 366 96.9 31.9 66.7 92 1 1 2 363 23
07/28/16 Video View Perez, Hernan MIL Ray, Robbie ARI 3 Miller Park ND 448 108.3 25.8 95.1 96 1 1 1 445 30
07/28/16 Video View Nieuwenhuis, Kirk MIL Clippard, Tyler ARI 8 Miller Park PL 417 104.1 29.9 76.0 105 2 1 2 413 30
07/29/16 Video View Carter, Chris MIL Brault, Steven PIT 1 Miller Park PL 416 104.5 32.0 101.1 125 -3 0 2 416 30
07/30/16 Video View Perez, Hernan MIL Taillon, Jameson PIT 1 Miller Park PL 395 103.7 31.3 116.7 101 0 -1 2 393 30
07/30/16 Video View Polanco, Gregory PIT Smith, Will MIL 8 Miller Park PL 381 101.3 29.2 64.6 84 0 -1 1 380 29
07/30/16 Video View Nieuwenhuis, Kirk MIL Feliz, Neftali PIT 8 Miller Park PL 421 104.1 30.1 80.4 112 0 -1 2 419 29
07/31/16 Video View Broxton, Keon MIL Liriano, Francisco PIT 2 Miller Park JE 411 102.7 24.9 85.4 80 0 1 1 410 16
07/31/16 Video View Polanco, Gregory PIT Garza, Matt MIL 3 Miller Park PL 382 102.6 25.6 69.7 70 -1 1 1 382 26
07/31/16 Video View Carter, Chris MIL Liriano, Francisco PIT 5 Miller Park PL 429 110.9 19.4 87.9 62 1 0 0 429 27
08/08/16 Video View Markakis, Nick ATL Davies, Zach MIL 2 Miller Park PL 377 101.3 28.4 68.3 85 0 -8 1 384 30
08/08/16 Video View Pierzynski, A.J. ATL Davies, Zach MIL 5 Miller Park JE 395 101.1 24.9 82.1 75 0 0 0 395 9
08/08/16 Video View Maldonado, Martin MIL Whalen, Rob ATL 5 Miller Park JE 414 103.2 24.4 91.0 79 0 0 1 414 18
08/09/16 Video View Braun, Ryan MIL Jenkins, Tyrell ATL 4 Miller Park PL 415 107.4 24.1 103.8 74 0 1 0 414 30
08/10/16 Video View Carter, Chris MIL De La Cruz, Joel ATL 3 Miller Park PL 439 105.9 27.9 92.9 106 0 2 2 437 30
08/10/16 Video View Freeman, Freddie ATL Anderson, Chase MIL 4 Miller Park ND 445 107.9 26.0 95.7 96 0 1 1 443 30
08/10/16 Video View Freeman, Freddie ATL Knebel, Corey MIL 8 Miller Park PL 360 97.4 34.7 119.0 103 0 1 2 357 29
08/11/16 Video View Carter, Chris MIL Hernandez, Roberto ATL 1 Miller Park PL 387 97.9 31.6 99.8 105 -2 2 2 385 8
08/11/16 Video View Gennett, Scooter MIL Hernandez, Roberto ATL 3 Miller Park JE 396 105.1 22.7 77.9 64 0 1 1 395 20
08/11/16 Video View Perez, Hernan MIL Hernandez, Roberto ATL 4 Miller Park PL 384 102.7 34.9 114.1 123 -7 5 2 383 30
08/11/16 Video View Aybar, Erick ATL Garza, Matt MIL 6 Miller Park PL 401 103.1 28.4 71.7 89 -1 2 1 399 30
08/12/16 Video View Duvall, Adam CIN Nelson, Jimmy MIL 3 Miller Park ND 421 106.7 25.9 103.9 85 0 0 1 420 30
08/12/16 Video View Flores, Ramon MIL Ohlendorf, Ross CIN 8 Miller Park JE 412 101.1 28.0 89.3 96 0 0 1 410 20
08/12/16 Video View Pina, Manny MIL Sampson, Keyvius CIN 9 Miller Park PL 433 105.5 26.4 86.4 96 0 0 1 432 28
08/13/16 Video View Suarez, Eugenio CIN Blazek, Michael MIL 6 Miller Park PL 397 103.4 32.8 113.8 110 1 2 2 393 30
08/13/16 Video View Maldonado, Martin MIL Smith, Josh CIN 8 Miller Park PL 421 102.5 28.8 92.3 104 0 1 2 419 25
08/13/16 Video View Braun, Ryan MIL Straily, Dan CIN 6 Miller Park PL 423 104.2 24.9 92.5 84 0 0 0 421 25
08/14/16 Video View Braun, Ryan MIL Reed, Cody CIN 2 Miller Park PL 444 108.7 23.1 89.3 82 0 0 1 442 30
08/14/16 Video View Braun, Ryan MIL Sampson, Keyvius CIN 4 Miller Park JE 388 109.5 20.0 103.5 52 0 0 0 388 6
08/14/16 Video View Votto, Joey CIN Torres, Carlos MIL 8 Miller Park PL 392 107.7 23.3 68.6 63 0 1 1 392 29
08/22/16 Video View Carter, Chris MIL Bettis, Chad COL 3 Miller Park PL 405 106.2 27.6 114.4 84 0 0 1 403 30
08/23/16 Video View Arenado, Nolan COL Anderson, Chase MIL 3 Miller Park PL 393 103.9 29.5 117.4 88 0 0 1 392 30
08/24/16 Video View Arenado, Nolan COL Davies, Zach MIL 1 Miller Park PL 398 104.3 28.3 113.6 85 -1 1 1 397 30
08/24/16 Video View Braun, Ryan MIL Anderson, Tyler COL 4 Miller Park PL 389 101.7 30.7 114.1 94 -1 2 2 386 30
08/24/16 Video View Braun, Ryan MIL Qualls, Chad COL 7 Miller Park PL 422 102.6 28.6 86.7 102 0 2 2 418 25
08/25/16 Video View McCutchen, Andrew PIT Peralta, Wily MIL 1 Miller Park PL 367 101.2 37.6 116.6 130 0 2 3 362 30
08/25/16 Video View Nieuwenhuis, Kirk MIL Kuhl, Chad PIT 7 Miller Park ND 416 109.6 27.6 61.5 85 0 0 1 415 30
08/26/16 Video View Mercer, Jordy PIT Garza, Matt MIL 6 Miller Park JE 384 97.4 29.0 99.4 90 0 0 1 383 4
08/26/16 Video View Arcia, Orlando MIL Hughes, Jared PIT 6 Miller Park PL 400 101.2 28.2 102.3 91 0 0 1 399 28
08/27/16 Video View Perez, Hernan MIL Taillon, Jameson PIT 1 Miller Park PL 398 102.4 27.0 105.6 82 0 1 1 396 30
08/27/16 Video View Perez, Hernan MIL Taillon, Jameson PIT 3 Miller Park JE 414 106.8 20.8 92.1 64 0 0 0 414 15
08/27/16 Video View Cravy, Tyler MIL Locke, Jeff PIT 4 Miller Park PL 406 102.5 30.0 105.1 102 0 1 2 403 30
08/28/16 Video View Villar, Jonathan MIL Nova, Ivan PIT 3 Miller Park JE 414 107.9 20.4 85.4 62 0 0 0 413 16
08/28/16 Video View Jaso, John PIT Anderson, Chase MIL 6 Miller Park PL 394 103.1 35.4 72.5 133 0 2 3 388 30
08/28/16 Video View Polanco, Gregory PIT Anderson, Chase MIL 6 Miller Park PL 379 105.3 23.5 67.6 60 0 0 1 379 21
08/28/16 Video View Marte, Starling PIT Torres, Carlos MIL 8 Miller Park JE 412 106.0 21.6 85.4 66 0 0 0 412 16
08/29/16 Video View Gyorko, Jedd STL Davies, Zach MIL 5 Miller Park JE 378 98.2 28.2 105.3 82 0 0 1 377 12
08/29/16 Video View Wong, Kolten STL Davies, Zach MIL 7 Miller Park PL 391 105.8 27.2 59.1 75 0 1 1 390 30
08/29/16 Video View Arcia, Orlando MIL Bowman, Matt STL 7 Miller Park JE 396 106.2 22.4 103.3 63 0 0 0 395 24
08/29/16 Video View Grichuk, Randal STL Knebel, Corey MIL 8 Miller Park ND 433 107.7 24.6 81.7 85 0 0 0 433 30


About HitTracker | Contact Us
© 2006-2016 HitTrackerOnline